createdAt,value
2022-08-09T00:31:56.792Z,0
2022-08-09T00:32:25.561Z,0
2022-08-09T00:33:00.494Z,0
2022-08-09T00:38:21.673Z,0
2022-08-09T00:39:02.111Z,0
2022-08-09T00:40:10.167Z,0
2022-08-09T00:45:14.917Z,0
2022-08-09T00:45:50.428Z,0
2022-08-09T00:46:28.302Z,0
2022-08-09T00:47:07.728Z,0
2022-08-09T00:47:48.187Z,0
2022-08-09T00:48:28.637Z,0
2022-08-09T00:49:09.107Z,0
2022-08-09T00:49:52.724Z,0
2022-08-09T00:50:30.083Z,0
2022-08-09T00:51:12.092Z,0
2022-08-09T00:51:54.717Z,0
2022-08-09T00:59:20.027Z,0
2022-08-09T00:59:56.830Z,0
2022-08-09T01:00:37.233Z,0
2022-08-09T01:01:17.733Z,0
2022-08-09T01:01:58.251Z,0
2022-08-09T01:02:38.653Z,0
2022-08-09T01:03:19.235Z,0
2022-08-09T01:03:59.685Z,0
2022-08-09T01:04:40.230Z,0
2022-08-09T01:05:21.767Z,0
2022-08-09T01:06:03.751Z,0
2022-08-09T01:13:30.981Z,0
2022-08-09T01:14:06.870Z,0
2022-08-09T01:14:47.990Z,0
2022-08-09T01:15:27.870Z,0
2022-08-09T01:16:08.373Z,0
2022-08-09T01:16:49.353Z,0
2022-08-09T01:17:30.176Z,0
2022-08-09T01:18:09.780Z,0
2022-08-09T01:19:01.846Z,0
2022-08-09T01:19:40.334Z,0
2022-08-09T01:20:11.222Z,0
2022-08-09T01:27:36.404Z,0
2022-08-09T01:28:16.936Z,0
2022-08-09T01:28:57.409Z,0
2022-08-09T01:29:41.454Z,0
2022-08-09T01:30:28.931Z,0
2022-08-09T01:30:59.136Z,0
2022-08-09T01:32:30.505Z,0
2022-08-09T01:32:30.530Z,0
2022-08-09T01:33:00.270Z,0
2022-08-09T01:34:21.210Z,0
2022-08-09T01:41:53.307Z,0
2022-08-09T01:42:26.997Z,0
2022-08-09T01:43:07.439Z,0
2022-08-09T01:43:50.318Z,0
2022-08-09T01:44:28.395Z,0
2022-08-09T01:45:08.898Z,0
2022-08-09T01:45:49.341Z,0
2022-08-09T01:46:29.805Z,0
2022-08-09T01:47:11.701Z,0
2022-08-09T01:47:50.746Z,0
2022-08-09T01:48:31.507Z,0
2022-08-09T01:58:29.939Z,0
2022-08-09T01:59:10.314Z,0
2022-08-09T01:59:51.609Z,0
2022-08-09T02:05:15.705Z,0
2022-08-09T02:06:04.341Z,0
2022-08-09T02:06:35.569Z,0
2022-08-09T02:07:18.616Z,0
2022-08-09T02:08:36.166Z,0
2022-08-09T02:08:41.455Z,0
2022-08-09T02:09:17.460Z,0
2022-08-09T02:09:59.232Z,0
2022-08-09T02:10:38.410Z,0
2022-08-09T02:11:18.822Z,0
2022-08-09T02:11:59.274Z,0
2022-08-09T02:19:24.446Z,0
2022-08-09T02:20:04.953Z,0
2022-08-09T02:20:46.123Z,0
2022-08-09T02:21:25.889Z,0
2022-08-09T02:22:06.343Z,0
2022-08-09T02:22:46.836Z,0
2022-08-09T02:24:07.814Z,0
2022-08-09T02:24:51.696Z,0
2022-08-09T02:25:28.701Z,0
2022-08-09T02:26:09.194Z,0
2022-08-09T02:34:26.099Z,0
2022-08-09T02:34:55.817Z,0
2022-08-09T02:35:46.488Z,0
2022-08-09T02:36:16.155Z,0
2022-08-09T02:36:56.607Z,0
2022-08-09T02:37:37.091Z,0
2022-08-09T02:38:21.985Z,0
2022-08-09T02:38:58.143Z,0
2022-08-09T02:39:39.950Z,0
2022-08-09T02:40:24.895Z,0
2022-08-09T02:47:46.585Z,0
2022-08-09T02:48:30.568Z,0
2022-08-09T02:49:05.275Z,0
2022-08-09T02:49:45.743Z,0
2022-08-09T02:50:26.842Z,0
2022-08-09T02:51:06.735Z,0
2022-08-09T02:51:47.174Z,0
2022-08-09T02:52:27.650Z,0
2022-08-09T02:53:08.130Z,0
2022-08-09T02:53:52.848Z,0
2022-08-09T02:54:29.119Z,0
2022-08-09T03:02:06.549Z,0
2022-08-09T03:02:35.129Z,0
2022-08-09T03:03:21.392Z,0
2022-08-09T03:04:13.653Z,0
2022-08-09T03:04:36.218Z,0
2022-08-09T03:05:16.900Z,0
2022-08-09T03:05:57.159Z,0
2022-08-09T03:06:37.624Z,0
2022-08-09T03:07:18.067Z,0
2022-08-09T03:07:58.557Z,0
2022-08-09T03:08:39.023Z,0
2022-08-09T03:16:06.952Z,0
2022-08-09T03:16:47.797Z,0
2022-08-09T03:17:26.894Z,0
2022-08-09T03:18:46.175Z,0
2022-08-09T03:19:52.071Z,0
2022-08-09T03:20:11.377Z,0
2022-08-09T03:20:47.574Z,0
2022-08-09T03:21:28.121Z,0
2022-08-09T03:22:12.000Z,0
2022-08-09T03:22:51.770Z,0
2022-08-09T03:30:14.469Z,0
2022-08-09T03:30:54.910Z,0
2022-08-09T03:31:42.321Z,0
2022-08-09T03:32:15.883Z,0
2022-08-09T03:32:56.314Z,0
2022-08-09T03:33:51.573Z,0
2022-08-09T03:34:58.036Z,0
2022-08-09T03:35:44.534Z,0
2022-08-09T03:36:19.285Z,0
2022-08-09T03:43:51.610Z,0
2022-08-09T03:44:27.693Z,0
2022-08-09T03:45:05.360Z,0
2022-08-09T03:46:03.566Z,0
2022-08-09T03:46:27.353Z,0
2022-08-09T03:47:07.130Z,0
2022-08-09T03:47:47.397Z,0
2022-08-09T03:48:29.334Z,0
2022-08-09T03:49:09.517Z,0
2022-08-09T03:49:57.849Z,0
2022-08-09T03:50:31.951Z,0
2022-08-09T03:58:03.608Z,0
2022-08-09T03:58:34.942Z,0
2022-08-09T03:59:17.343Z,0
2022-08-09T04:00:00.456Z,0
2022-08-09T04:00:36.471Z,0
2022-08-09T04:01:18.070Z,0
2022-08-09T04:01:59.123Z,0
2022-08-09T04:02:39.016Z,0
2022-08-09T04:08:04.316Z,0
2022-08-09T04:08:46.538Z,0
2022-08-09T04:09:42.184Z,0
2022-08-09T04:10:05.787Z,0
2022-08-09T04:10:48.043Z,0
2022-08-09T04:11:26.726Z,0
2022-08-09T04:12:07.230Z,0
2022-08-09T04:12:49.841Z,0
2022-08-09T04:13:45.241Z,0
2022-08-09T04:19:43.147Z,0
2022-08-09T04:20:15.187Z,5
2022-08-09T04:20:55.752Z,5
2022-08-09T04:21:38.594Z,5
2022-08-09T04:22:16.880Z,5
2022-08-09T04:22:57.220Z,5
2022-08-09T04:23:37.688Z,5
2022-08-09T04:24:18.355Z,10
2022-08-09T04:24:58.647Z,10
2022-08-09T04:25:39.167Z,10
2022-08-09T04:33:04.695Z,15
2022-08-09T04:33:47.922Z,20
2022-08-09T04:34:30.817Z,15
2022-08-09T04:35:08.616Z,15
2022-08-09T04:35:48.410Z,20
2022-08-09T04:36:28.897Z,20
2022-08-09T04:37:09.361Z,20
2022-08-09T04:43:15.142Z,25
2022-08-09T04:44:06.143Z,30
2022-08-09T04:44:35.415Z,30
2022-08-09T04:45:15.889Z,30
2022-08-09T04:45:56.418Z,35
2022-08-09T04:46:38.370Z,35
2022-08-09T04:47:17.347Z,35
2022-08-09T04:47:59.607Z,35
2022-08-09T04:48:38.398Z,40
2022-08-09T04:49:22.141Z,40
2022-08-09T04:56:05.341Z,55
2022-08-09T04:56:45.853Z,55
2022-08-09T04:57:26.333Z,60
2022-08-09T04:58:09.417Z,60
2022-08-09T04:58:47.398Z,60
2022-08-09T04:59:30.125Z,60
2022-08-09T05:01:16.205Z,65
2022-08-09T05:01:54.899Z,65
2022-08-09T05:02:35.404Z,65
2022-08-09T05:05:31.669Z,75
2022-08-09T05:07:35.416Z,85
2022-08-09T05:08:15.333Z,85
2022-08-09T05:09:00.109Z,90
2022-08-09T05:14:19.613Z,105
2022-08-09T05:15:00.044Z,105
2022-08-09T05:15:42.886Z,110
2022-08-09T05:16:21.040Z,110
2022-08-09T05:17:01.539Z,115
2022-08-09T05:18:40.128Z,125
2022-08-09T05:18:40.297Z,115
2022-08-09T05:19:03.059Z,120
2022-08-09T05:19:44.742Z,125
2022-08-09T05:20:24.113Z,125
2022-08-09T05:27:49.649Z,155
2022-08-09T05:28:30.124Z,155
2022-08-09T05:29:17.130Z,155
2022-08-09T05:29:51.175Z,165
2022-08-09T05:30:31.637Z,160
2022-08-09T05:31:12.218Z,165
2022-08-09T05:31:56.502Z,170
2022-08-09T05:32:33.364Z,175
2022-08-09T05:33:13.693Z,175
2022-08-09T05:33:54.315Z,185
2022-08-09T05:40:39.767Z,220
2022-08-09T05:41:20.257Z,225
2022-08-09T05:42:01.422Z,235
2022-08-09T05:42:41.332Z,240
2022-08-09T05:43:21.737Z,250
2022-08-09T05:44:02.272Z,255
2022-08-09T05:44:42.817Z,265
2022-08-09T05:45:23.306Z,270
2022-08-09T05:48:03.184Z,305
2022-08-09T05:48:43.646Z,325
2022-08-09T05:50:05.872Z,340
2022-08-09T05:52:06.285Z,845
2022-08-09T06:32:53.629Z,785
2022-08-09T06:33:30.644Z,785
2022-08-09T06:34:09.350Z,810
2022-08-09T06:34:52.670Z,835
2022-08-09T06:38:38.178Z,910
2022-08-09T06:39:18.765Z,895
2022-08-09T06:40:01.878Z,845
2022-08-09T06:40:41.914Z,805
2022-08-09T06:41:39.638Z,780
2022-08-09T06:42:11.280Z,750
2022-08-09T06:44:54.123Z,720
2022-08-09T06:46:04.564Z,725
2022-08-09T06:46:39.424Z,725
2022-08-09T06:46:55.679Z,725
2022-08-09T06:47:39.648Z,675
2022-08-09T06:48:16.548Z,555
2022-08-09T06:49:00.024Z,405
2022-08-09T06:49:45.038Z,350
2022-08-09T06:50:18.983Z,335
2022-08-09T06:56:30.725Z,300
2022-08-09T06:57:03.377Z,300
2022-08-09T06:58:02.422Z,300
2022-08-09T06:58:28.557Z,300
2022-08-09T07:00:48.056Z,310
2022-08-09T07:00:48.147Z,300
2022-08-09T07:00:53.482Z,305
2022-08-09T07:01:07.825Z,315
2022-08-09T07:06:32.832Z,325
2022-08-09T07:07:59.215Z,325
2022-08-09T07:07:59.353Z,325
2022-08-09T07:08:34.670Z,325
2022-08-09T07:09:53.917Z,330
2022-08-09T07:10:12.817Z,325
2022-08-09T07:10:36.560Z,320
2022-08-09T07:15:53.473Z,290
2022-08-09T07:16:40.152Z,285
2022-08-09T07:16:55.501Z,280
2022-08-09T07:18:52.927Z,270
2022-08-09T07:19:33.574Z,265
2022-08-09T07:20:14.247Z,265
2022-08-09T07:20:57.248Z,265
2022-08-09T07:21:37.783Z,260
2022-08-09T07:26:23.788Z,230
2022-08-09T07:28:37.511Z,215
2022-08-09T07:29:18.351Z,210
2022-08-09T07:29:58.915Z,200
2022-08-09T07:34:02.317Z,170
2022-08-09T07:34:42.948Z,165
2022-08-09T07:35:23.421Z,160
2022-08-09T07:36:04.054Z,160
2022-08-09T07:36:47.149Z,155
2022-08-09T07:37:25.202Z,150
2022-08-09T07:38:05.802Z,145
2022-08-09T07:38:52.548Z,145
2022-08-09T07:44:54.665Z,115
2022-08-09T07:45:37.261Z,115
2022-08-09T07:46:17.235Z,115
2022-08-09T07:46:55.716Z,115
2022-08-09T07:47:39.439Z,110
2022-08-09T07:48:22.786Z,110
2022-08-09T07:50:32.901Z,105
2022-08-09T07:51:09.921Z,105
2022-08-09T07:52:04.063Z,100
2022-08-09T07:52:24.702Z,100
2022-08-09T07:53:05.453Z,100
2022-08-09T07:54:04.553Z,100
2022-08-09T07:56:33.194Z,95
2022-08-09T07:57:19.376Z,90
2022-08-09T07:58:13.039Z,90
2022-08-09T07:58:50.907Z,90
2022-08-09T07:59:34.991Z,90
2022-08-09T08:00:12.455Z,85
2022-08-09T08:00:55.819Z,85
2022-08-09T08:01:34.840Z,85
2022-08-09T08:08:06.367Z,80
2022-08-09T08:08:44.846Z,80
2022-08-09T08:09:05.248Z,80
2022-08-09T08:09:46.124Z,80
2022-08-09T08:10:23.049Z,75
2022-08-09T08:12:03.499Z,75
2022-08-09T08:12:09.595Z,75
2022-08-09T08:17:14.110Z,70
2022-08-09T08:17:55.806Z,70
2022-08-09T08:18:33.239Z,70
2022-08-09T08:19:13.878Z,70
2022-08-09T08:19:54.432Z,70
2022-08-09T08:20:35.208Z,70
2022-08-09T08:24:01.149Z,70
2022-08-09T08:24:41.673Z,70
2022-08-09T08:25:20.808Z,70
2022-08-09T08:26:06.319Z,70
2022-08-09T08:26:55.372Z,70
2022-08-09T08:27:22.986Z,70
2022-08-09T08:28:03.516Z,65
2022-08-09T08:28:44.167Z,65
2022-08-09T08:29:27.629Z,65
2022-08-09T08:30:05.226Z,65
2022-08-09T08:36:50.748Z,65
2022-08-09T08:37:40.878Z,65
2022-08-09T08:38:12.001Z,65
2022-08-09T08:38:52.494Z,65
2022-08-09T08:40:13.701Z,65
2022-08-09T08:40:54.884Z,65
2022-08-09T08:46:25.080Z,65
2022-08-09T08:47:04.688Z,65
2022-08-09T08:47:44.869Z,65
2022-08-09T08:48:23.725Z,65
2022-08-09T08:49:04.324Z,65
2022-08-09T08:50:25.336Z,65
2022-08-09T08:56:32.049Z,65
2022-08-09T08:57:11.274Z,65
2022-08-09T08:57:57.002Z,60
2022-08-09T08:58:32.215Z,60
2022-08-09T08:59:19.567Z,60
2022-08-09T08:59:53.760Z,60
2022-08-09T09:00:34.120Z,60
2022-08-09T09:01:20.951Z,60
2022-08-09T09:01:57.282Z,60
2022-08-09T09:08:42.051Z,60
2022-08-09T09:09:41.351Z,60
2022-08-09T09:10:04.854Z,60
2022-08-09T09:10:42.364Z,60
2022-08-09T09:11:23.033Z,60
2022-08-09T09:12:03.741Z,60
2022-08-09T09:15:44.035Z,60
2022-08-09T09:16:30.119Z,60
2022-08-09T09:17:06.447Z,60
2022-08-09T09:19:48.697Z,60
2022-08-09T09:20:29.333Z,60
2022-08-09T09:21:10.130Z,60
2022-08-09T09:21:50.693Z,60
2022-08-09T09:22:31.418Z,60
2022-08-09T09:23:13.997Z,60
2022-08-09T09:23:57.553Z,60
2022-08-09T09:24:33.281Z,60
2022-08-09T09:29:02.763Z,60
2022-08-09T09:30:05.619Z,60
2022-08-09T09:30:37.576Z,60
2022-08-09T09:30:57.986Z,60
2022-08-09T09:35:18.579Z,60
2022-08-09T09:36:20.703Z,60
2022-08-09T09:36:57.144Z,60
2022-08-09T09:37:37.714Z,60
2022-08-09T09:38:27.725Z,55
2022-08-09T09:43:03.470Z,60
2022-08-09T09:44:10.386Z,60
2022-08-09T09:44:25.228Z,60
2022-08-09T09:45:05.022Z,60
2022-08-09T09:46:43.280Z,60
2022-08-09T09:47:06.753Z,60
2022-08-09T09:47:47.987Z,60
2022-08-09T09:48:27.863Z,60
2022-08-09T09:49:08.470Z,60
2022-08-09T09:53:13.628Z,55
2022-08-09T09:53:57.936Z,55
2022-08-09T09:54:35.578Z,55
2022-08-09T09:55:29.091Z,55
2022-08-09T09:58:49.069Z,55
2022-08-09T09:59:29.715Z,55
2022-08-09T10:00:09.733Z,55
2022-08-09T10:06:12.446Z,55
2022-08-09T10:06:54.247Z,55
2022-08-09T10:07:33.311Z,55
2022-08-09T10:08:26.206Z,55
2022-08-09T10:08:57.474Z,55
2022-08-09T10:09:45.495Z,55
2022-08-09T10:13:23.302Z,55
2022-08-09T10:13:57.151Z,55
2022-08-09T10:14:44.107Z,55
2022-08-09T10:15:25.756Z,55
2022-08-09T10:20:26.764Z,55
2022-08-09T10:21:03.632Z,55
2022-08-09T10:21:44.114Z,55
2022-08-09T10:25:11.524Z,55
2022-08-09T10:34:52.856Z,55
2022-08-09T10:38:55.140Z,55
2022-08-09T10:41:35.152Z,50
2022-08-09T10:42:15.796Z,50
2022-08-09T10:42:56.392Z,50
2022-08-09T10:44:21.862Z,50
2022-08-09T10:45:01.492Z,50
2022-08-09T10:45:49.462Z,50
2022-08-09T10:46:25.350Z,50
2022-08-09T10:47:03.914Z,50
2022-08-09T10:50:43.011Z,50
2022-08-09T10:55:49.441Z,50
2022-08-09T10:56:30.052Z,50
2022-08-09T10:57:12.508Z,50
2022-08-09T10:57:55.573Z,50
2022-08-09T10:58:37.259Z,50
2022-08-09T10:59:17.531Z,50
2022-08-09T11:03:03.529Z,50
2022-08-09T11:03:03.695Z,50
2022-08-09T11:03:03.771Z,50
2022-08-09T11:05:32.594Z,50
2022-08-09T11:06:22.801Z,50
2022-08-09T11:07:10.865Z,50
2022-08-09T11:08:00.544Z,50
2022-08-09T11:16:33.771Z,50
2022-08-09T11:17:21.114Z,50
2022-08-09T11:18:06.613Z,50
2022-08-09T11:22:40.795Z,50
2022-08-09T11:23:24.135Z,50
2022-08-09T11:24:01.913Z,50
2022-08-09T11:24:42.491Z,50
2022-08-09T11:28:28.010Z,50
2022-08-09T11:29:03.116Z,50
2022-08-09T11:30:05.479Z,50
2022-08-09T11:30:33.132Z,50
2022-08-09T11:31:50.055Z,50
2022-08-09T11:32:28.485Z,50
2022-08-09T11:33:09.313Z,50
2022-08-09T11:33:50.227Z,50
2022-08-09T11:34:30.389Z,50
2022-08-09T11:35:12.359Z,50
2022-08-09T11:35:52.744Z,50
2022-08-09T11:40:46.123Z,50
2022-08-09T11:41:37.741Z,50
2022-08-09T11:42:17.667Z,50
2022-08-09T11:42:58.734Z,50
2022-08-09T11:43:39.391Z,50
2022-08-09T11:47:10.919Z,45
2022-08-09T11:47:49.205Z,50
2022-08-09T11:48:30.014Z,45
2022-08-09T11:49:16.810Z,50
2022-08-09T11:50:52.928Z,45
2022-08-09T11:52:49.739Z,45
2022-08-09T11:52:49.808Z,45
2022-08-09T11:52:57.266Z,45
2022-08-09T12:35:19.540Z,45
2022-08-09T12:35:59.659Z,45
2022-08-09T12:36:40.295Z,45
2022-08-09T12:40:05.567Z,45
2022-08-09T12:40:43.860Z,45
2022-08-09T12:41:24.481Z,45
2022-08-09T12:42:04.984Z,45
2022-08-09T12:42:45.386Z,45
2022-08-09T12:44:04.631Z,45
2022-08-09T12:47:11.992Z,45
2022-08-09T12:47:52.276Z,45
2022-08-09T12:48:37.373Z,45
2022-08-09T12:49:20.819Z,45
2022-08-09T12:52:03.926Z,45
2022-08-09T12:53:08.383Z,45
2022-08-09T12:57:28.783Z,45
2022-08-09T12:58:09.102Z,45
2022-08-09T12:58:52.458Z,45
2022-08-09T12:59:39.937Z,45
2022-08-09T13:00:11.372Z,45
2022-08-09T13:00:51.947Z,45
2022-08-09T13:04:37.364Z,45
2022-08-09T13:05:15.730Z,45
2022-08-09T13:06:13.383Z,45
2022-08-09T13:08:43.483Z,45
2022-08-09T13:09:20.358Z,45
2022-08-09T13:10:01.675Z,45
2022-08-09T13:10:41.617Z,45
2022-08-09T13:11:22.841Z,45
2022-08-09T13:12:03.081Z,45
2022-08-09T13:14:53.284Z,45
2022-08-09T13:15:29.663Z,45
2022-08-09T13:16:10.764Z,45
2022-08-09T13:18:19.000Z,45
2022-08-09T13:18:59.859Z,45
2022-08-09T13:20:08.251Z,45
2022-08-09T13:20:23.207Z,45
2022-08-09T13:21:04.701Z,45
2022-08-09T13:22:35.099Z,45
2022-08-09T13:26:31.623Z,45
2022-08-09T13:27:11.624Z,45
2022-08-09T13:27:54.643Z,45
2022-08-09T13:32:14.761Z,45
2022-08-09T13:32:18.293Z,45
2022-08-09T13:32:39.741Z,45
2022-08-09T13:33:17.030Z,45
2022-08-09T13:33:57.366Z,45
2022-08-09T13:34:37.890Z,45
2022-08-09T13:35:18.360Z,45
2022-08-09T13:36:23.980Z,45
2022-08-09T13:36:43.128Z,45
2022-08-09T13:37:24.510Z,45
2022-08-09T13:44:05.419Z,45
2022-08-09T13:44:45.701Z,45
2022-08-09T13:45:32.051Z,45
2022-08-09T13:46:07.502Z,45
2022-08-09T13:47:18.110Z,45
2022-08-09T13:47:44.351Z,45
2022-08-09T13:48:10.597Z,45
2022-08-09T13:48:48.824Z,40
2022-08-09T13:50:12.444Z,40
2022-08-09T13:54:15.178Z,40
2022-08-09T13:54:59.536Z,40
2022-08-09T13:55:36.888Z,40
2022-08-09T13:56:18.187Z,40
2022-08-09T13:56:57.146Z,40
2022-08-09T13:57:39.957Z,40
2022-08-09T13:58:18.197Z,40
2022-08-09T13:58:58.762Z,40
2022-08-09T13:59:41.939Z,40
2022-08-09T14:00:19.745Z,40
2022-08-09T14:07:45.544Z,40
2022-08-09T14:08:26.803Z,40
2022-08-09T14:09:06.543Z,40
2022-08-09T14:09:47.085Z,40
2022-08-09T14:10:37.237Z,40
2022-08-09T14:11:09.918Z,40
2022-08-09T14:11:48.617Z,40
2022-08-09T14:12:29.129Z,40
2022-08-09T14:13:12.050Z,40
2022-08-09T14:19:55.593Z,40
2022-08-09T14:20:36.058Z,40
2022-08-09T14:21:16.611Z,40
2022-08-09T14:21:57.096Z,40
2022-08-09T14:22:37.602Z,40
2022-08-09T14:23:20.184Z,40
2022-08-09T14:24:01.056Z,40
2022-08-09T14:24:39.658Z,40
2022-08-09T14:25:19.665Z,40
2022-08-09T14:32:45.421Z,35
2022-08-09T14:33:25.908Z,35
2022-08-09T14:34:07.951Z,35
2022-08-09T14:34:46.877Z,35
2022-08-09T14:35:27.408Z,35
2022-08-09T14:36:20.086Z,35
2022-08-09T14:36:48.654Z,35
2022-08-09T14:37:41.031Z,35
2022-08-09T14:38:09.381Z,35
2022-08-09T14:44:59.717Z,35
2022-08-09T14:46:39.252Z,35
2022-08-09T14:46:39.262Z,35
2022-08-09T14:47:05.129Z,35
2022-08-09T14:47:43.043Z,35
2022-08-09T14:48:17.894Z,35
2022-08-09T14:48:58.379Z,35
2022-08-09T14:49:39.976Z,35
2022-08-09T14:50:19.382Z,35
2022-08-09T14:50:59.963Z,35
2022-08-09T14:57:45.183Z,35
2022-08-09T14:58:25.711Z,35
2022-08-09T14:59:06.246Z,35
2022-08-09T14:59:48.718Z,35
2022-08-09T15:00:27.259Z,35
2022-08-09T15:01:07.820Z,35
2022-08-09T15:01:48.391Z,35
2022-08-09T15:02:28.852Z,35
2022-08-09T15:03:10.508Z,35
2022-08-09T15:03:49.857Z,35
2022-08-09T15:11:15.436Z,35
2022-08-09T15:11:56.001Z,35
2022-08-09T15:12:36.554Z,35
2022-08-09T15:13:17.020Z,30
2022-08-09T15:14:01.714Z,35
2022-08-09T15:14:38.877Z,35
2022-08-09T15:15:18.738Z,30
2022-08-09T15:15:59.326Z,30
2022-08-09T15:16:39.795Z,30
2022-08-09T15:23:56.467Z,30
2022-08-09T15:24:10.787Z,30
2022-08-09T15:24:47.642Z,30
2022-08-09T15:25:39.433Z,30
2022-08-09T15:26:09.081Z,30
2022-08-09T15:26:47.844Z,30
2022-08-09T15:27:28.363Z,30
2022-08-09T15:28:54.600Z,30
2022-08-09T15:36:15.270Z,30
2022-08-09T15:36:55.748Z,30
2022-08-09T15:37:36.861Z,30
2022-08-09T15:38:16.738Z,30
2022-08-09T15:38:57.365Z,30
2022-08-09T15:39:50.029Z,30
2022-08-09T15:40:19.893Z,30
2022-08-09T15:40:58.940Z,30
2022-08-09T15:41:39.859Z,30
2022-08-09T15:50:00.899Z,30
2022-08-09T15:50:39.051Z,30
2022-08-09T15:51:30.634Z,30
2022-08-09T15:56:42.335Z,30
2022-08-09T15:57:33.744Z,30
2022-08-09T16:00:03.396Z,30
2022-08-09T16:00:44.409Z,30
2022-08-09T16:01:25.063Z,30
2022-08-09T16:02:48.270Z,30
2022-08-09T16:03:26.612Z,30
2022-08-09T16:04:12.100Z,30
2022-08-09T16:04:47.549Z,25
2022-08-09T16:05:36.424Z,25
2022-08-09T16:06:16.205Z,25
2022-08-09T16:06:50.452Z,25
2022-08-09T16:07:29.552Z,25
2022-08-09T16:14:15.815Z,25
2022-08-09T16:14:56.301Z,25
2022-08-09T16:16:18.523Z,25
2022-08-09T16:16:57.826Z,25
2022-08-09T16:17:38.459Z,25
2022-08-09T16:18:19.464Z,25
2022-08-09T16:19:00.274Z,25
2022-08-09T16:24:30.044Z,25
2022-08-09T16:25:06.644Z,25
2022-08-09T16:25:49.734Z,25
2022-08-09T16:26:34.322Z,25
2022-08-09T16:27:08.146Z,25
2022-08-09T16:27:51.450Z,25
2022-08-09T16:28:29.361Z,25
2022-08-09T16:29:10.847Z,25
2022-08-09T16:33:56.577Z,25
2022-08-09T16:34:54.495Z,25
2022-08-09T16:35:39.178Z,25
2022-08-09T16:38:05.949Z,25
2022-08-09T16:38:46.445Z,25
2022-08-09T16:39:27.003Z,25
2022-08-09T16:40:07.932Z,25
2022-08-09T16:40:48.440Z,25
2022-08-09T16:41:39.522Z,25
2022-08-09T16:42:09.925Z,25
2022-08-09T16:42:50.509Z,25
2022-08-09T16:48:52.965Z,25
2022-08-09T16:50:28.550Z,25
2022-08-09T16:50:30.907Z,20
2022-08-09T16:50:49.822Z,20
2022-08-09T16:51:28.079Z,20
2022-08-09T16:52:09.097Z,20
2022-08-09T16:52:50.026Z,20
2022-08-09T16:57:01.117Z,20
2022-08-09T16:58:09.430Z,20
2022-08-09T16:58:49.978Z,20
2022-08-09T16:59:27.025Z,20
2022-08-09T17:00:09.485Z,20
2022-08-09T17:00:48.942Z,20
2022-08-09T17:01:29.923Z,20
2022-08-09T17:06:03.023Z,20
2022-08-09T17:06:29.527Z,20
2022-08-09T17:08:41.828Z,20
2022-08-09T17:08:42.356Z,20
2022-08-09T17:08:42.613Z,20
2022-08-09T17:08:57.923Z,20
2022-08-09T17:09:44.833Z,20
2022-08-09T17:10:15.266Z,20
2022-08-09T17:16:13.735Z,20
2022-08-09T17:16:54.216Z,20
2022-08-09T17:17:50.221Z,20
2022-08-09T17:22:58.991Z,20
2022-08-09T17:24:21.531Z,20
2022-08-09T17:24:27.367Z,20
2022-08-09T17:25:41.033Z,15
2022-08-09T17:26:31.438Z,15
2022-08-09T17:27:02.072Z,15
2022-08-09T17:27:48.658Z,15
2022-08-09T17:28:23.211Z,15
2022-08-09T17:35:01.757Z,15
2022-08-09T17:35:40.964Z,15
2022-08-09T17:36:23.120Z,15
2022-08-09T17:37:03.450Z,15
2022-08-09T17:42:13.635Z,15
2022-08-09T17:42:55.445Z,15
2022-08-09T17:43:36.034Z,15
2022-08-09T17:48:17.675Z,15
2022-08-09T17:48:58.131Z,15
2022-08-09T17:49:50.363Z,15
2022-08-09T17:50:25.203Z,15
2022-08-09T17:51:09.147Z,15
2022-08-09T17:51:40.348Z,15
2022-08-09T17:52:22.360Z,15
2022-08-09T17:53:01.407Z,15
2022-08-09T18:34:24.050Z,5
2022-08-09T18:35:02.792Z,5
2022-08-09T18:35:56.236Z,5
2022-08-09T18:36:25.440Z,5
2022-08-09T18:39:48.437Z,5
2022-08-09T18:40:26.755Z,5
2022-08-09T18:41:07.187Z,0
2022-08-09T18:41:52.365Z,0
2022-08-09T18:42:28.306Z,0
2022-08-09T18:43:08.563Z,0
2022-08-09T18:43:53.207Z,0
2022-08-09T18:44:29.589Z,0
2022-08-09T18:45:10.027Z,0
2022-08-09T18:46:45.754Z,0
2022-08-09T18:53:16.345Z,0
2022-08-09T18:54:00.859Z,0
2022-08-09T18:54:36.731Z,0
2022-08-09T18:55:17.183Z,0
2022-08-09T18:56:05.104Z,0
2022-08-09T18:56:38.165Z,0
2022-08-09T18:57:18.635Z,0
2022-08-09T18:57:59.100Z,0
2022-08-09T18:58:39.624Z,0
2022-08-09T18:59:20.171Z,0
2022-08-09T19:00:03.830Z,0
2022-08-09T19:07:26.133Z,0
2022-08-09T19:08:10.372Z,0
2022-08-09T19:08:54.806Z,0
2022-08-09T19:09:34.249Z,0
2022-08-09T19:10:15.061Z,0
2022-08-09T19:10:48.621Z,0
2022-08-09T19:11:35.487Z,0
2022-08-09T19:12:09.579Z,0
2022-08-09T19:12:50.339Z,0
2022-08-09T19:13:38.231Z,0
2022-08-09T19:20:57.048Z,0
2022-08-09T19:21:47.977Z,0
2022-08-09T19:22:16.946Z,0
2022-08-09T19:22:57.234Z,0
2022-08-09T19:24:33.826Z,0
2022-08-09T19:24:33.925Z,0
2022-08-09T19:25:07.136Z,0
2022-08-09T19:25:42.898Z,0
2022-08-09T19:26:19.798Z,0
2022-08-09T19:34:26.664Z,0
2022-08-09T19:35:07.199Z,0
2022-08-09T19:35:56.649Z,0
2022-08-09T19:37:16.756Z,0
2022-08-09T19:37:57.814Z,0
2022-08-09T19:38:39.755Z,0
2022-08-09T19:39:17.653Z,0
2022-08-09T19:40:02.746Z,0
2022-08-09T19:40:38.653Z,0
2022-08-09T19:41:32.841Z,0
2022-08-09T19:41:59.557Z,0
2022-08-09T19:42:40.089Z,0
2022-08-09T19:43:58.337Z,0
2022-08-09T19:50:48.758Z,0
2022-08-09T19:51:26.716Z,0
2022-08-09T19:52:07.159Z,0
2022-08-09T19:52:49.544Z,0
2022-08-09T19:53:28.161Z,0
2022-08-09T19:54:08.655Z,0
2022-08-09T19:54:49.139Z,0
2022-08-09T19:55:30.941Z,0
2022-08-09T19:56:15.264Z,0
2022-08-09T19:56:50.600Z,0
2022-08-09T20:04:24.263Z,0
2022-08-09T20:04:56.738Z,0
2022-08-09T20:05:46.232Z,0
2022-08-09T20:06:22.889Z,0
2022-08-09T20:06:57.934Z,0
2022-08-09T20:07:56.674Z,0
2022-08-09T20:08:24.919Z,0
2022-08-09T20:08:59.655Z,0
2022-08-09T20:09:43.844Z,0
2022-08-09T20:10:22.242Z,0
2022-08-09T20:17:48.207Z,0
2022-08-09T20:18:27.531Z,0
2022-08-09T20:19:43.432Z,0
2022-08-09T20:19:49.675Z,0
2022-08-09T20:20:27.697Z,0
2022-08-09T20:21:08.515Z,0
2022-08-09T20:21:55.301Z,0
2022-08-09T20:22:32.003Z,0
2022-08-09T20:23:09.701Z,0
2022-08-09T20:23:50.160Z,0
2022-08-09T20:24:33.374Z,0
2022-08-09T20:32:29.473Z,0
2022-08-09T20:32:36.459Z,0
2022-08-09T20:33:16.943Z,0
2022-08-09T20:33:58.105Z,0
2022-08-09T20:34:37.960Z,0
2022-08-09T20:38:20.466Z,0
2022-08-09T20:39:19.125Z,0
2022-08-09T20:40:14.316Z,0
2022-08-09T20:40:19.337Z,0
2022-08-09T20:45:28.476Z,0
2022-08-09T20:45:58.057Z,0
2022-08-09T20:46:33.643Z,0
2022-08-09T20:47:03.639Z,0
2022-08-09T20:47:45.703Z,0
2022-08-09T20:48:24.597Z,0
2022-08-09T20:49:05.102Z,0
2022-08-09T20:49:45.559Z,0
2022-08-09T20:50:46.839Z,0
2022-08-09T20:51:06.545Z,0
2022-08-09T20:58:32.474Z,0
2022-08-09T20:59:12.461Z,0
2022-08-09T21:00:19.760Z,0
2022-08-09T21:00:33.406Z,0
2022-08-09T21:01:33.860Z,0
2022-08-09T21:01:54.556Z,0
2022-08-09T21:02:35.104Z,0
2022-08-09T21:03:16.719Z,0
2022-08-09T21:04:07.818Z,0
2022-08-09T21:05:50.055Z,0
2022-08-09T21:05:55.412Z,0
2022-08-09T21:13:22.560Z,0
2022-08-09T21:14:03.029Z,0
2022-08-09T21:14:46.062Z,0
2022-08-09T21:15:27.529Z,0
2022-08-09T21:16:04.497Z,0
2022-08-09T21:16:45.711Z,0
2022-08-09T21:18:10.800Z,0
2022-08-09T21:18:12.431Z,0
2022-08-09T21:19:01.590Z,0
2022-08-09T21:26:11.793Z,0
2022-08-09T21:26:52.291Z,0
2022-08-09T21:28:00.353Z,0
2022-08-09T21:28:15.686Z,0
2022-08-09T21:28:56.122Z,0
2022-08-09T21:29:49.208Z,0
2022-08-09T21:30:14.768Z,0
2022-08-09T21:30:55.266Z,0
2022-08-09T21:31:48.393Z,0
2022-08-09T21:32:18.590Z,0
2022-08-09T21:32:57.108Z,0
2022-08-09T21:40:30.084Z,0
2022-08-09T21:41:02.538Z,0
2022-08-09T21:41:59.932Z,0
2022-08-09T21:43:03.990Z,0
2022-08-09T21:43:56.285Z,0
2022-08-09T21:44:33.665Z,0
2022-08-09T21:45:05.491Z,0
2022-08-09T21:45:46.595Z,0
2022-08-09T21:53:15.838Z,0
2022-08-09T21:53:52.496Z,0
2022-08-09T21:54:32.973Z,0
2022-08-09T21:55:14.849Z,0
2022-08-09T21:55:53.920Z,0
2022-08-09T21:56:43.413Z,0
2022-08-09T21:57:25.574Z,0
2022-08-09T21:57:59.325Z,0
2022-08-09T22:01:25.944Z,0
2022-08-09T22:01:59.604Z,0
2022-08-09T22:02:36.592Z,0
2022-08-09T22:07:59.067Z,0
2022-08-09T22:08:39.404Z,0
2022-08-09T22:09:19.913Z,0
2022-08-09T22:10:00.359Z,0
2022-08-09T22:11:01.272Z,0
2022-08-09T22:11:50.673Z,0
2022-08-09T22:12:06.483Z,0
2022-08-09T22:12:49.753Z,0
2022-08-09T22:13:22.763Z,0
2022-08-09T22:14:03.224Z,0